createdAt,value
2018-11-03T00:02:16.205Z,818.70
2018-11-03T00:04:44.539Z,820.20
2018-11-03T00:07:12.871Z,813.85
2018-11-03T00:09:41.308Z,817.65
2018-11-03T00:12:09.628Z,813.20
2018-11-03T00:14:37.972Z,825.53
2018-11-03T00:17:06.300Z,814.00
2018-11-03T00:19:34.632Z,818.65
2018-11-03T00:22:02.956Z,814.10
2018-11-03T00:24:31.296Z,811.30
2018-11-03T00:26:59.630Z,810.28
2018-11-03T00:29:27.980Z,814.87
2018-11-03T00:31:56.312Z,816.05
2018-11-03T00:34:24.664Z,815.83
2018-11-03T00:36:53.012Z,824.83
2018-11-03T00:39:21.365Z,812.97
2018-11-03T00:41:49.680Z,820.63
2018-11-03T00:44:18.003Z,816.08
2018-11-03T00:46:46.329Z,814.50
2018-11-03T00:49:14.726Z,813.38
2018-11-03T00:51:43.081Z,816.35
2018-11-03T00:54:11.429Z,819.90
2018-11-03T00:56:39.759Z,816.00
2018-11-03T00:59:08.080Z,818.27
2018-11-03T01:01:36.416Z,815.53
2018-11-03T01:04:04.944Z,816.98
2018-11-03T01:06:33.285Z,818.60
2018-11-03T01:09:01.624Z,822.05
2018-11-03T01:11:29.961Z,815.87
2018-11-03T01:13:58.268Z,821.23
2018-11-03T01:16:26.587Z,820.48
2018-11-03T01:18:54.900Z,819.05
2018-11-03T01:21:23.272Z,812.27
2018-11-03T01:23:51.674Z,822.83
2018-11-03T01:26:19.936Z,824.13
2018-11-03T01:28:48.268Z,818.40
2018-11-03T01:31:16.613Z,818.35
2018-11-03T01:33:44.927Z,816.08
2018-11-03T01:36:13.248Z,821.55
2018-11-03T01:38:41.589Z,818.88
2018-11-03T01:41:09.932Z,818.33
2018-11-03T01:43:38.247Z,822.73
2018-11-03T01:46:06.616Z,824.73
2018-11-03T01:48:34.956Z,815.83
2018-11-03T01:51:03.306Z,812.65
2018-11-03T01:53:31.654Z,818.80
2018-11-03T01:56:00.017Z,818.73
2018-11-03T01:58:28.326Z,810.95
2018-11-03T02:00:56.654Z,810.50
2018-11-03T02:03:24.988Z,811.55
2018-11-03T02:05:53.324Z,815.17
2018-11-03T02:08:21.673Z,815.57
2018-11-03T02:10:49.991Z,815.58
2018-11-03T02:13:18.317Z,814.25
2018-11-03T02:15:46.632Z,820.95
2018-11-03T02:18:14.948Z,821.87
2018-11-03T02:20:43.319Z,819.00
2018-11-03T02:23:11.660Z,819.10
2018-11-03T02:25:39.997Z,817.50
2018-11-03T02:28:08.339Z,823.23
2018-11-03T02:30:36.688Z,821.18
2018-11-03T02:33:05.004Z,823.23
2018-11-03T02:35:33.337Z,818.28
2018-11-03T02:38:01.673Z,823.38
2018-11-03T02:40:30.012Z,819.67
2018-11-03T02:42:58.328Z,815.67
2018-11-03T02:45:26.640Z,813.00
2018-11-03T02:47:55.012Z,816.50
2018-11-03T02:50:23.340Z,817.10
2018-11-03T02:52:51.692Z,817.97
2018-11-03T02:55:20.012Z,818.70
2018-11-03T02:57:48.361Z,818.67
2018-11-03T03:00:16.680Z,816.10
2018-11-03T03:02:45.004Z,814.58
2018-11-03T03:05:13.343Z,815.38
2018-11-03T03:07:41.893Z,816.75
2018-11-03T03:10:11.591Z,815.60
2018-11-03T03:12:40.001Z,825.75
2018-11-03T03:15:10.015Z,812.90
2018-11-03T03:17:38.349Z,815.73
2018-11-03T03:20:08.037Z,813.63
2018-11-03T03:22:36.380Z,816.65
2018-11-03T03:25:05.041Z,824.45
2018-11-03T03:27:33.540Z,819.00
2018-11-03T03:30:01.873Z,816.65
2018-11-03T03:32:30.411Z,823.67
2018-11-03T03:34:58.891Z,820.42
2018-11-03T03:37:27.225Z,822.05
2018-11-03T03:39:55.547Z,819.65
2018-11-03T03:42:23.888Z,820.35
2018-11-03T03:44:52.221Z,818.58
2018-11-03T03:47:20.580Z,818.07
2018-11-03T03:49:48.898Z,813.98
2018-11-03T03:52:17.361Z,816.85
2018-11-03T03:54:45.708Z,817.45
2018-11-03T03:57:14.049Z,816.20
2018-11-03T03:59:42.376Z,813.57
2018-11-03T04:02:10.704Z,821.08
2018-11-03T04:04:39.028Z,818.37
2018-11-03T04:07:07.492Z,815.35
2018-11-03T04:09:35.807Z,813.08
2018-11-03T04:12:04.181Z,821.05
2018-11-03T04:14:32.504Z,830.30
2018-11-03T04:17:00.828Z,816.17
2018-11-03T04:19:29.144Z,817.42
2018-11-03T04:21:57.482Z,814.40
2018-11-03T04:24:25.805Z,824.98
2018-11-03T04:26:54.145Z,813.60
2018-11-03T04:29:22.461Z,809.52
2018-11-03T04:31:50.809Z,810.30
2018-11-03T04:34:19.117Z,805.63
2018-11-03T04:36:47.461Z,817.30
2018-11-03T04:39:15.772Z,810.52
2018-11-03T04:41:44.121Z,815.65
2018-11-03T04:44:12.468Z,813.05
2018-11-03T04:46:40.812Z,818.43
2018-11-03T04:49:09.244Z,815.72
2018-11-03T04:51:37.596Z,820.75
2018-11-03T04:54:05.921Z,809.70
2018-11-03T04:56:34.273Z,808.30
2018-11-03T04:59:02.581Z,809.80
2018-11-03T05:01:30.901Z,812.20
2018-11-03T05:03:59.235Z,808.10
2018-11-03T05:06:27.573Z,796.65
2018-11-03T05:08:55.904Z,799.52
2018-11-03T05:11:24.216Z,805.72
2018-11-03T05:13:52.585Z,808.23
2018-11-03T05:16:20.903Z,816.62
2018-11-03T05:18:49.233Z,818.73
2018-11-03T05:21:17.658Z,820.15
2018-11-03T05:23:45.920Z,810.35
2018-11-03T05:26:14.219Z,810.70
2018-11-03T05:28:42.549Z,806.30
2018-11-03T05:31:10.947Z,808.83
2018-11-03T05:33:39.244Z,805.90
2018-11-03T05:36:07.544Z,813.23
2018-11-03T05:38:35.888Z,816.92
2018-11-03T05:41:05.298Z,818.88
2018-11-03T05:43:33.720Z,819.63
2018-11-03T05:46:02.071Z,814.77
2018-11-03T05:48:30.413Z,821.30
2018-11-03T05:50:58.753Z,818.48
2018-11-03T05:53:29.597Z,827.73
2018-11-03T05:55:59.007Z,819.20
2018-11-03T05:58:27.486Z,814.67
2018-11-03T06:00:55.916Z,815.00
2018-11-03T06:03:24.255Z,817.98
2018-11-03T06:05:52.582Z,812.10
2018-11-03T06:08:20.969Z,815.75
2018-11-03T06:10:49.394Z,816.65
2018-11-03T06:13:17.734Z,822.17
2018-11-03T06:15:46.125Z,817.22
2018-11-03T06:18:14.493Z,817.53
2018-11-03T06:20:42.983Z,818.35
2018-11-03T06:23:11.468Z,816.70
2018-11-03T06:25:39.714Z,816.58
2018-11-03T06:28:08.045Z,815.35
2018-11-03T06:30:36.344Z,818.37
2018-11-03T06:33:04.941Z,818.40
2018-11-03T06:35:33.247Z,821.48
2018-11-03T06:38:01.697Z,821.45
2018-11-03T06:40:30.017Z,818.88
2018-11-03T06:42:58.361Z,826.15
2018-11-03T06:45:26.686Z,822.12
2018-11-03T06:47:55.087Z,814.35
2018-11-03T06:50:23.404Z,819.37
2018-11-03T06:52:51.772Z,820.50
2018-11-03T06:55:20.144Z,819.40
2018-11-03T06:57:48.516Z,823.20
2018-11-03T07:00:18.457Z,821.30
2018-11-03T07:02:46.896Z,817.80
2018-11-03T07:05:15.253Z,813.42
2018-11-03T07:07:43.599Z,821.40
2018-11-03T07:10:12.131Z,810.22
2018-11-03T07:12:41.013Z,826.28
2018-11-03T07:15:09.838Z,818.77
2018-11-03T07:17:38.204Z,819.73
2018-11-03T07:20:08.780Z,822.67
2018-11-03T07:22:37.204Z,826.50
2018-11-03T07:25:06.289Z,829.18
2018-11-03T07:27:34.703Z,827.50
2018-11-03T07:30:03.282Z,833.23
2018-11-03T07:32:31.608Z,835.30
2018-11-03T07:34:59.964Z,825.38
2018-11-03T07:37:28.293Z,820.23
2018-11-03T07:39:56.632Z,818.45
2018-11-03T07:42:25.064Z,825.15
2018-11-03T07:44:53.317Z,822.93
2018-11-03T07:47:21.651Z,825.33
2018-11-03T07:49:49.986Z,818.80
2018-11-03T07:52:18.345Z,827.80
2018-11-03T07:54:46.743Z,822.87
2018-11-03T07:57:15.028Z,823.95
2018-11-03T07:59:43.486Z,821.65
2018-11-03T08:02:11.807Z,823.27
2018-11-03T08:04:40.150Z,823.32
2018-11-03T08:07:08.463Z,831.05
2018-11-03T08:09:36.793Z,829.23
2018-11-03T08:12:05.124Z,833.92
2018-11-03T08:14:33.468Z,824.08
2018-11-03T08:17:01.801Z,827.58
2018-11-03T08:19:30.146Z,822.50
2018-11-03T08:21:58.452Z,832.85
2018-11-03T08:24:26.808Z,824.77
2018-11-03T08:26:55.205Z,829.33
2018-11-03T08:29:23.541Z,821.35
2018-11-03T08:31:51.866Z,830.03
2018-11-03T08:34:20.241Z,826.40
2018-11-03T08:36:48.562Z,824.17
2018-11-03T08:39:16.910Z,827.95
2018-11-03T08:41:45.224Z,840.58
2018-11-03T08:44:13.595Z,836.67
2018-11-03T08:46:41.934Z,844.55
2018-11-03T08:49:10.287Z,841.00
2018-11-03T08:51:38.628Z,839.15
2018-11-03T08:54:07.000Z,842.50
2018-11-03T08:56:35.324Z,848.87
2018-11-03T08:59:03.657Z,848.85
2018-11-03T09:01:32.049Z,861.43
2018-11-03T09:04:00.438Z,858.27
2018-11-03T09:06:28.772Z,859.37
2018-11-03T09:08:57.111Z,859.33
2018-11-03T09:11:25.417Z,856.35
2018-11-03T09:13:53.752Z,860.75
2018-11-03T09:16:22.106Z,855.20
2018-11-03T09:18:50.431Z,860.85
2018-11-03T09:21:18.765Z,872.15
2018-11-03T09:23:47.272Z,875.38
2018-11-03T09:26:15.589Z,850.60
2018-11-03T09:28:43.932Z,850.90
2018-11-03T09:31:12.300Z,847.65
2018-11-03T09:33:40.659Z,858.30
2018-11-03T09:36:08.963Z,845.73
2018-11-03T09:38:37.280Z,841.40
2018-11-03T09:41:05.863Z,843.05
2018-11-03T09:43:34.237Z,841.70
2018-11-03T09:46:02.505Z,844.17
2018-11-03T09:48:30.819Z,845.57
2018-11-03T09:50:59.184Z,855.08
2018-11-03T09:53:27.498Z,846.45
2018-11-03T09:55:55.851Z,848.20
2018-11-03T09:58:24.176Z,847.57
2018-11-03T10:00:52.520Z,851.88
2018-11-03T10:03:20.836Z,846.97
2018-11-03T10:05:49.160Z,854.72
2018-11-03T10:08:17.498Z,843.48
2018-11-03T10:10:45.847Z,853.65
2018-11-03T10:13:14.153Z,854.83
2018-11-03T10:15:42.545Z,858.20
2018-11-03T10:18:10.807Z,859.35
2018-11-03T10:20:39.140Z,851.90
2018-11-03T10:23:07.557Z,868.07
2018-11-03T10:25:35.835Z,868.90
2018-11-03T10:28:04.181Z,871.57
2018-11-03T10:30:32.608Z,874.93
2018-11-03T10:33:00.915Z,871.37
2018-11-03T10:35:29.261Z,857.77
2018-11-03T10:37:57.589Z,858.33
2018-11-03T10:40:25.932Z,852.25
2018-11-03T10:42:54.284Z,855.75
2018-11-03T10:45:22.638Z,858.77
2018-11-03T10:47:50.964Z,863.50
2018-11-03T10:50:19.625Z,871.42
2018-11-03T10:52:48.383Z,884.37
2018-11-03T10:55:17.951Z,891.05
2018-11-03T10:57:46.256Z,903.48
2018-11-03T11:00:21.489Z,887.67
2018-11-03T11:02:55.283Z,873.07
2018-11-03T11:05:29.023Z,871.37
2018-11-03T11:08:02.748Z,874.10
2018-11-03T11:10:36.436Z,854.75
2018-11-03T11:13:07.603Z,867.13
2018-11-03T11:15:35.978Z,887.75
2018-11-03T11:18:04.335Z,866.02
2018-11-03T11:20:32.673Z,866.32
2018-11-03T11:23:00.991Z,868.67
2018-11-03T11:25:29.498Z,861.28
2018-11-03T11:27:57.690Z,866.65
2018-11-03T11:30:30.265Z,849.77
2018-11-03T11:34:38.139Z,853.83
2018-11-03T11:37:06.443Z,852.08
2018-11-03T11:39:34.873Z,857.50
2018-11-03T11:42:03.266Z,861.35
2018-11-03T11:44:31.605Z,868.15
2018-11-03T11:46:59.955Z,888.70
2018-11-03T11:49:28.304Z,886.90
2018-11-03T11:51:56.804Z,903.42
2018-11-03T11:54:25.119Z,902.85
2018-11-03T11:56:53.461Z,906.72
2018-11-03T11:59:21.797Z,898.85
2018-11-03T12:01:50.123Z,922.47
2018-11-03T12:04:18.437Z,855.10
2018-11-03T12:06:46.772Z,853.58
2018-11-03T12:09:15.100Z,858.27
2018-11-03T12:11:43.436Z,856.08
2018-11-03T12:14:11.751Z,849.95
2018-11-03T12:16:40.092Z,857.63
2018-11-03T12:19:08.421Z,868.25
2018-11-03T12:21:36.792Z,862.00
2018-11-03T12:24:05.678Z,888.87
2018-11-03T12:26:34.033Z,855.63
2018-11-03T12:29:02.372Z,848.42
2018-11-03T12:31:30.727Z,857.40
2018-11-03T12:33:59.081Z,852.70
2018-11-03T12:36:27.428Z,857.60
2018-11-03T12:38:55.747Z,854.00
2018-11-03T12:41:24.188Z,842.60
2018-11-03T12:43:52.428Z,846.00
2018-11-03T12:46:20.769Z,851.28
2018-11-03T12:48:49.140Z,846.90
2018-11-03T12:51:17.500Z,849.58
2018-11-03T12:53:45.849Z,848.32
2018-11-03T12:56:14.205Z,842.73
2018-11-03T12:58:42.524Z,843.90
2018-11-03T13:01:10.862Z,851.85
2018-11-03T13:03:39.208Z,851.35
2018-11-03T13:06:07.543Z,855.83
2018-11-03T13:09:21.895Z,836.23
2018-11-03T13:11:50.220Z,845.27
2018-11-03T13:14:18.553Z,841.02
2018-11-03T13:16:46.904Z,843.95
2018-11-03T13:19:15.236Z,854.67
2018-11-03T13:21:43.606Z,848.80
2018-11-03T13:24:12.453Z,840.47
2018-11-03T13:26:40.772Z,841.85
2018-11-03T13:29:09.109Z,841.75
2018-11-03T13:31:37.456Z,844.05
2018-11-03T13:34:06.335Z,838.65
2018-11-03T13:36:34.676Z,837.35
2018-11-03T13:39:02.991Z,840.12
2018-11-03T13:41:31.316Z,839.40
2018-11-03T13:43:59.652Z,835.97
2018-11-03T13:46:27.991Z,832.15
2018-11-03T13:48:56.316Z,835.52
2018-11-03T13:51:24.788Z,837.10
2018-11-03T13:53:53.124Z,843.58
2018-11-03T13:56:21.462Z,840.83
2018-11-03T13:58:49.887Z,836.28
2018-11-03T14:01:18.215Z,842.17
2018-11-03T14:03:46.547Z,836.97
2018-11-03T14:06:14.868Z,836.43
2018-11-03T14:08:43.192Z,833.95
2018-11-03T14:11:11.699Z,842.53
2018-11-03T14:13:39.969Z,843.85
2018-11-03T14:16:08.304Z,850.90
2018-11-03T14:18:36.601Z,836.55
2018-11-03T14:21:05.045Z,836.90
2018-11-03T14:23:33.446Z,838.03
2018-11-03T14:26:01.729Z,837.92
2018-11-03T14:28:30.037Z,842.90
2018-11-03T14:30:58.368Z,836.47
2018-11-03T14:33:26.804Z,837.67
2018-11-03T14:35:55.056Z,843.48
2018-11-03T14:38:23.400Z,841.20
2018-11-03T14:40:51.728Z,841.83
2018-11-03T14:43:20.057Z,841.10
2018-11-03T14:45:48.385Z,839.23
2018-11-03T14:48:16.726Z,837.40
2018-11-03T14:50:45.037Z,842.40
2018-11-03T14:53:13.393Z,833.63
2018-11-03T14:55:41.717Z,839.95
2018-11-03T14:58:10.055Z,839.25
2018-11-03T15:00:38.696Z,845.42
2018-11-03T15:03:07.721Z,840.67
2018-11-03T15:05:36.021Z,842.42
2018-11-03T15:08:04.494Z,846.25
2018-11-03T15:10:33.010Z,839.05
2018-11-03T15:13:01.353Z,836.67
2018-11-03T15:15:29.688Z,834.58
2018-11-03T15:17:58.035Z,842.00
2018-11-03T15:20:26.346Z,831.53
2018-11-03T15:22:54.688Z,842.47
2018-11-03T15:25:23.019Z,836.50
2018-11-03T15:27:51.390Z,844.25
2018-11-03T15:30:19.687Z,840.98
2018-11-03T15:32:48.020Z,845.33
2018-11-03T15:35:16.325Z,839.17
2018-11-03T15:37:44.667Z,841.95
2018-11-03T15:40:14.283Z,846.78
2018-11-03T15:42:43.113Z,847.90
2018-11-03T15:45:13.743Z,841.80
2018-11-03T15:47:42.622Z,837.55
2018-11-03T15:50:11.333Z,845.92
2018-11-03T15:52:39.673Z,837.97
2018-11-03T15:55:08.003Z,846.40
2018-11-03T15:57:36.541Z,839.27
2018-11-03T16:00:06.550Z,838.90
2018-11-03T16:02:34.888Z,858.25
2018-11-03T16:05:03.205Z,843.10
2018-11-03T16:07:31.563Z,832.50
2018-11-03T16:09:59.911Z,831.95
2018-11-03T16:12:28.303Z,837.40
2018-11-03T16:14:56.560Z,852.70
2018-11-03T16:17:24.892Z,835.87
2018-11-03T16:19:53.211Z,838.55
2018-11-03T16:22:21.553Z,844.15
2018-11-03T16:24:49.862Z,847.05
2018-11-03T16:27:18.201Z,840.30
2018-11-03T16:29:46.500Z,836.10
2018-11-03T16:32:14.926Z,835.07
2018-11-03T16:34:43.197Z,837.37
2018-11-03T16:37:11.524Z,837.12
2018-11-03T16:39:39.827Z,833.38
2018-11-03T16:42:08.168Z,837.25
2018-11-03T16:44:36.509Z,832.83
2018-11-03T16:47:04.877Z,852.20
2018-11-03T16:49:33.187Z,843.90
2018-11-03T16:52:01.525Z,841.50
2018-11-03T16:54:30.877Z,840.27
2018-11-03T16:57:00.212Z,840.40
2018-11-03T16:59:28.793Z,836.35
2018-11-03T17:01:57.101Z,840.40
2018-11-03T17:04:25.441Z,839.00
2018-11-03T17:06:53.801Z,840.00
2018-11-03T17:09:22.124Z,840.47
2018-11-03T17:11:50.432Z,843.85
2018-11-03T17:14:18.777Z,845.70
2018-11-03T17:16:47.084Z,843.20
2018-11-03T17:19:15.413Z,844.03
2018-11-03T17:21:43.732Z,844.67
2018-11-03T17:24:12.123Z,851.75
2018-11-03T17:26:40.432Z,841.60
2018-11-03T17:29:08.776Z,843.65
2018-11-03T17:31:37.100Z,848.87
2018-11-03T17:34:05.707Z,840.75
2018-11-03T17:36:34.082Z,841.02
2018-11-03T17:39:02.439Z,842.90
2018-11-03T17:41:30.769Z,842.58
2018-11-03T17:43:59.151Z,851.07
2018-11-03T17:46:27.436Z,848.30
2018-11-03T17:48:55.787Z,850.80
2018-11-03T17:51:24.140Z,853.05
2018-11-03T17:53:52.539Z,853.08
2018-11-03T17:56:20.839Z,858.60
2018-11-03T17:58:49.216Z,842.60
2018-11-03T18:01:17.706Z,857.98
2018-11-03T18:03:46.002Z,843.20
2018-11-03T18:06:14.338Z,846.83
2018-11-03T18:08:42.664Z,842.05
2018-11-03T18:11:11.045Z,845.67
2018-11-03T18:13:39.669Z,843.65
2018-11-03T18:16:08.289Z,853.33
2018-11-03T18:18:36.620Z,834.70
2018-11-03T18:21:04.984Z,841.08
2018-11-03T18:23:33.343Z,841.92
2018-11-03T18:26:01.740Z,844.20
2018-11-03T18:28:30.189Z,835.07
2018-11-03T18:30:58.572Z,845.42
2018-11-03T18:33:27.018Z,849.87
2018-11-03T18:35:55.196Z,845.67
2018-11-03T18:38:23.609Z,844.52
2018-11-03T18:40:51.935Z,846.97
2018-11-03T18:43:20.267Z,847.75
2018-11-03T18:45:48.592Z,854.42
2018-11-03T18:48:16.920Z,856.20
2018-11-03T18:50:45.260Z,854.30
2018-11-03T18:53:13.609Z,855.70
2018-11-03T18:55:41.915Z,849.90
2018-11-03T18:58:10.253Z,852.97
2018-11-03T19:00:38.563Z,853.80
2018-11-03T19:03:06.996Z,857.62
2018-11-03T19:05:35.308Z,853.40
2018-11-03T19:08:03.645Z,849.02
2018-11-03T19:10:31.983Z,854.27
2018-11-03T19:13:00.401Z,861.90
2018-11-03T19:15:28.683Z,855.93
2018-11-03T19:17:57.089Z,851.23
2018-11-03T19:20:25.427Z,860.13
2018-11-03T19:22:53.745Z,854.27
2018-11-03T19:25:22.163Z,854.40
2018-11-03T19:27:50.480Z,860.22
2018-11-03T19:30:18.921Z,849.27
2018-11-03T19:32:47.200Z,869.63
2018-11-03T19:35:15.572Z,855.78
2018-11-03T19:37:43.911Z,859.15
2018-11-03T19:40:13.112Z,857.17
2018-11-03T19:42:41.839Z,859.65
2018-11-03T19:45:10.712Z,854.37
2018-11-03T19:47:39.006Z,862.55
2018-11-03T19:50:08.900Z,860.57
2018-11-03T19:52:37.220Z,861.12
2018-11-03T19:55:05.779Z,860.97
2018-11-03T19:57:34.314Z,857.47
2018-11-03T20:00:02.677Z,862.42
2018-11-03T20:02:31.534Z,860.15
2018-11-03T20:04:59.946Z,865.65
2018-11-03T20:07:28.633Z,867.33
2018-11-03T20:09:57.044Z,860.90
2018-11-03T20:12:25.363Z,862.97
2018-11-03T20:14:53.802Z,862.27
2018-11-03T20:17:22.141Z,863.30
2018-11-03T20:19:50.465Z,866.17
2018-11-03T20:22:18.783Z,863.55
2018-11-03T20:24:47.111Z,867.50
2018-11-03T20:27:15.452Z,875.00
2018-11-03T20:29:43.788Z,868.02
2018-11-03T20:32:12.088Z,859.37
2018-11-03T20:34:40.440Z,869.90
2018-11-03T20:37:08.993Z,863.60
2018-11-03T20:39:37.348Z,861.95
2018-11-03T20:42:05.962Z,863.45
2018-11-03T20:44:34.296Z,866.98
2018-11-03T20:47:02.955Z,862.90
2018-11-03T20:49:31.287Z,862.60
2018-11-03T20:51:59.682Z,857.13
2018-11-03T20:54:28.092Z,858.05
2018-11-03T20:56:56.397Z,857.77
2018-11-03T20:59:24.932Z,854.97
2018-11-03T21:01:53.365Z,862.63
2018-11-03T21:04:21.704Z,858.13
2018-11-03T21:06:50.008Z,857.00
2018-11-03T21:09:18.332Z,858.75
2018-11-03T21:11:46.645Z,854.78
2018-11-03T21:14:14.989Z,859.65
2018-11-03T21:16:43.323Z,861.48
2018-11-03T21:19:11.868Z,852.27
2018-11-03T21:21:40.289Z,860.77
2018-11-03T21:24:08.741Z,857.45
2018-11-03T21:26:37.023Z,865.53
2018-11-03T21:29:05.996Z,860.02
2018-11-03T21:31:34.389Z,854.60
2018-11-03T21:34:02.897Z,854.83
2018-11-03T21:36:31.248Z,854.72
2018-11-03T21:38:59.563Z,864.55
2018-11-03T21:41:27.881Z,845.15
2018-11-03T21:43:56.212Z,852.02
2018-11-03T21:46:25.294Z,857.05
2018-11-03T21:48:53.621Z,847.93
2018-11-03T21:51:21.956Z,848.32
2018-11-03T21:53:50.280Z,844.67
2018-11-03T21:56:18.603Z,852.37
2018-11-03T21:58:46.915Z,852.40
2018-11-03T22:01:15.244Z,844.48
2018-11-03T22:03:43.548Z,854.18
2018-11-03T22:06:11.902Z,850.60
2018-11-03T22:08:40.328Z,842.95
2018-11-03T22:11:08.668Z,856.87
2018-11-03T22:13:36.972Z,857.35
2018-11-03T22:16:05.364Z,858.85
2018-11-03T22:18:33.680Z,855.87
2018-11-03T22:21:02.021Z,858.58
2018-11-03T22:23:30.323Z,857.95
2018-11-03T22:25:58.645Z,855.10
2018-11-03T22:28:26.947Z,852.07
2018-11-03T22:30:55.343Z,853.52
2018-11-03T22:33:23.667Z,850.70
2018-11-03T22:35:51.987Z,854.67
2018-11-03T22:38:20.328Z,857.05
2018-11-03T22:40:48.658Z,861.25
2018-11-03T22:43:16.980Z,848.00
2018-11-03T22:45:45.321Z,860.25
2018-11-03T22:48:13.619Z,859.67
2018-11-03T22:50:41.944Z,852.17
2018-11-03T22:53:10.357Z,852.55
2018-11-03T22:55:38.685Z,852.43
2018-11-03T22:58:07.285Z,859.37
2018-11-03T23:00:39.844Z,849.90
2018-11-03T23:03:08.240Z,855.93
2018-11-03T23:05:36.577Z,851.02
2018-11-03T23:08:05.348Z,858.23
2018-11-03T23:10:33.667Z,848.90
2018-11-03T23:13:02.094Z,853.22
2018-11-03T23:15:30.355Z,859.73
2018-11-03T23:17:58.673Z,866.58
2018-11-03T23:20:27.068Z,853.58
2018-11-03T23:22:55.369Z,858.33
2018-11-03T23:25:23.703Z,852.88
2018-11-03T23:27:52.028Z,862.12
2018-11-03T23:30:20.396Z,861.48
2018-11-03T23:32:48.722Z,864.80
2018-11-03T23:35:17.053Z,857.37
2018-11-03T23:37:45.364Z,858.10
2018-11-03T23:40:13.689Z,863.50
2018-11-03T23:42:42.052Z,863.87
2018-11-03T23:45:10.827Z,857.90
2018-11-03T23:47:39.436Z,864.58
2018-11-03T23:50:09.357Z,860.80
2018-11-03T23:52:41.931Z,861.12
2018-11-03T23:55:10.241Z,862.60
2018-11-03T23:57:38.613Z,857.70
